Alexandria, New York
Current Conditions -  °F | °C
As of 11:58 AM on Friday 24 Oct 2014 (Local Time) from KGTB Reporting Station
Clear Clear  
Wind Chill: 54°   Ceiling: Unl
Heat Index: 54°   Visibility: 10mi
Dew Point: 40°   Wind: 6mph
Humidity: 61%   Direction: 310°NW
Pressure: 29.91"   Gusts: NA
Location:  44.3057°N, 75.9374°W
Report Text: KGTB 241558Z AUTO 31005KT 10SM CLR 12/05 A2991 RMK AO2 SLP131 T01210047
Loading
Personal Weather Stations






























Interactive Weather Map
Tropical Storm Tracking
New forecast layout! Learn more

10-Day Weather Forecast

Advertisements
Track Severe Weather on mobile